createdAt,value
2023-06-21T00:00:47.595Z,100.00
2023-06-21T00:05:56.363Z,100.00
2023-06-21T00:11:05.282Z,100.00
2023-06-21T00:16:11.158Z,100.00
2023-06-21T00:21:21.273Z,100.00
2023-06-21T00:26:27.534Z,100.00
2023-06-21T00:31:33.951Z,100.00
2023-06-21T00:36:43.200Z,100.00
2023-06-21T00:41:49.419Z,100.00
2023-06-21T00:46:56.702Z,100.00
2023-06-21T00:52:07.542Z,100.00
2023-06-21T00:57:13.502Z,100.00
2023-06-21T01:02:19.345Z,100.00
2023-06-21T01:07:40.209Z,100.00
2023-06-21T01:12:59.868Z,100.00
2023-06-21T01:18:07.885Z,100.00
2023-06-21T01:23:33.437Z,100.00
2023-06-21T01:29:15.821Z,100.00
2023-06-21T01:34:22.429Z,100.00
2023-06-21T01:39:31.059Z,100.00
2023-06-21T01:44:39.486Z,100.00
2023-06-21T01:49:46.598Z,100.00
2023-06-21T01:54:52.212Z,100.00
2023-06-21T02:00:00.662Z,100.00
2023-06-21T02:05:07.118Z,100.00
2023-06-21T02:10:13.857Z,100.00
2023-06-21T02:15:24.289Z,100.00
2023-06-21T02:20:30.690Z,100.00
2023-06-21T02:25:38.165Z,100.00
2023-06-21T02:30:47.854Z,100.00
2023-06-21T02:35:53.406Z,100.00
2023-06-21T02:40:59.188Z,100.00
2023-06-21T02:46:10.493Z,100.00
2023-06-21T02:51:15.997Z,100.00
2023-06-21T02:56:21.834Z,100.00
2023-06-21T03:01:30.099Z,100.00
2023-06-21T03:06:35.561Z,100.00
2023-06-21T03:11:43.231Z,100.00
2023-06-21T03:16:53.551Z,100.00
2023-06-21T03:21:59.709Z,100.00
2023-06-21T03:27:08.191Z,100.00
2023-06-21T03:32:16.803Z,100.00
2023-06-21T03:37:26.357Z,100.00
2023-06-21T03:42:32.141Z,100.00
2023-06-21T03:47:45.535Z,100.00
2023-06-21T03:52:52.962Z,100.00
2023-06-21T03:57:59.005Z,100.00
2023-06-21T04:03:07.333Z,100.00
2023-06-21T04:08:13.911Z,100.00
2023-06-21T04:13:21.038Z,100.00
2023-06-21T04:18:29.254Z,100.00
2023-06-21T04:23:37.233Z,100.00
2023-06-21T04:28:42.638Z,100.00
2023-06-21T04:33:53.215Z,100.00
2023-06-21T04:38:58.761Z,100.00
2023-06-21T04:44:05.684Z,100.00
2023-06-21T04:49:13.989Z,100.00
2023-06-21T04:54:24.306Z,100.00
2023-06-21T04:59:31.456Z,98.62
2023-06-21T05:04:39.922Z,96.72
2023-06-21T05:09:46.177Z,97.95
2023-06-21T05:14:52.111Z,94.39
2023-06-21T05:20:05.426Z,92.53
2023-06-21T05:25:11.512Z,89.75
2023-06-21T05:30:18.208Z,90.35
2023-06-21T05:35:29.491Z,88.35
2023-06-21T05:40:41.379Z,85.79
2023-06-21T05:45:49.896Z,86.29
2023-06-21T05:51:04.017Z,85.48
2023-06-21T06:01:40.774Z,84.56
2023-06-21T06:06:54.055Z,79.08
2023-06-21T06:12:01.729Z,77.01
2023-06-21T06:17:10.220Z,73.85
2023-06-21T06:22:20.429Z,74.62
2023-06-21T06:27:29.838Z,72.72
2023-06-21T06:32:44.689Z,70.67
2023-06-21T06:37:55.845Z,70.07
2023-06-21T06:43:01.339Z,69.52
2023-06-21T06:48:10.905Z,71.41
2023-06-21T06:53:19.853Z,67.21
2023-06-21T06:58:25.972Z,71.85
2023-06-21T07:03:32.184Z,73.78
2023-06-21T07:08:49.259Z,71.76
2023-06-21T07:13:59.131Z,74.05
2023-06-21T07:19:05.018Z,75.34
2023-06-21T07:24:16.511Z,73.54
2023-06-21T07:29:26.572Z,74.29
2023-06-21T07:34:33.294Z,74.65
2023-06-21T07:39:53.649Z,76.14
2023-06-21T07:45:00.316Z,76.02
2023-06-21T07:50:21.835Z,75.73
2023-06-21T07:55:31.227Z,76.45
2023-06-21T08:00:41.479Z,74.06
2023-06-21T08:05:47.519Z,73.70
2023-06-21T08:10:57.572Z,74.21
2023-06-21T08:16:05.517Z,73.23
2023-06-21T08:21:11.304Z,73.07
2023-06-21T08:26:20.171Z,71.77
2023-06-21T08:31:25.487Z,73.52
2023-06-21T08:36:30.620Z,74.59
2023-06-21T08:41:39.770Z,73.11
2023-06-21T08:46:47.012Z,73.60
2023-06-21T08:51:53.678Z,73.64
2023-06-21T08:57:07.151Z,72.99
2023-06-21T09:02:25.984Z,73.23
2023-06-21T09:07:32.499Z,72.64
2023-06-21T09:12:43.252Z,72.30
2023-06-21T09:17:51.201Z,71.01
2023-06-21T09:22:56.508Z,71.00
2023-06-21T09:28:04.240Z,73.11
2023-06-21T09:33:09.748Z,70.90
2023-06-21T09:38:26.767Z,69.83
2023-06-21T09:43:40.623Z,69.05
2023-06-21T09:48:50.005Z,68.33
2023-06-21T09:54:17.957Z,68.42
2023-06-21T09:59:26.186Z,68.04
2023-06-21T10:04:31.592Z,69.87
2023-06-21T10:09:39.913Z,68.44
2023-06-21T10:14:47.921Z,68.59
2023-06-21T10:19:57.102Z,66.56
2023-06-21T10:25:05.379Z,65.89
2023-06-21T10:30:17.023Z,65.25
2023-06-21T10:35:26.424Z,66.50
2023-06-21T10:40:33.952Z,66.00
2023-06-21T10:45:45.605Z,66.30
2023-06-21T10:50:51.905Z,68.38
2023-06-21T10:55:57.610Z,64.88
2023-06-21T11:01:05.628Z,69.77
2023-06-21T11:06:34.290Z,67.86
2023-06-21T11:11:51.804Z,65.34
2023-06-21T11:17:13.898Z,65.73
2023-06-21T11:22:22.349Z,66.24
2023-06-21T11:27:29.612Z,68.92
2023-06-21T11:32:41.262Z,60.95
2023-06-21T11:37:49.362Z,61.61
2023-06-21T11:42:54.596Z,61.13
2023-06-21T11:48:16.954Z,62.21
2023-06-21T11:53:25.482Z,62.75
2023-06-21T11:58:31.461Z,64.11
2023-06-21T12:03:47.429Z,62.73
2023-06-21T12:09:00.763Z,63.52
2023-06-21T12:14:07.605Z,64.14
2023-06-21T12:19:15.383Z,62.64
2023-06-21T12:24:31.555Z,61.53
2023-06-21T12:29:36.814Z,62.75
2023-06-21T12:34:45.955Z,63.56
2023-06-21T12:39:57.515Z,63.68
2023-06-21T12:45:03.397Z,62.65
2023-06-21T12:50:12.242Z,62.64
2023-06-21T12:55:20.106Z,64.10
2023-06-21T13:00:26.201Z,63.11
2023-06-21T13:05:34.885Z,62.57
2023-06-21T13:10:40.137Z,62.00
2023-06-21T13:15:45.355Z,61.06
2023-06-21T13:20:56.561Z,60.85
2023-06-21T13:26:02.603Z,60.97
2023-06-21T13:31:08.661Z,61.10
2023-06-21T13:36:16.661Z,61.29
2023-06-21T13:41:22.184Z,62.51
2023-06-21T13:46:30.505Z,61.86
2023-06-21T13:51:39.626Z,60.62
2023-06-21T13:56:47.962Z,61.12
2023-06-21T14:01:56.110Z,61.15
2023-06-21T14:07:08.530Z,61.43
2023-06-21T14:12:16.037Z,60.21
2023-06-21T14:17:22.345Z,60.77
2023-06-21T14:22:31.763Z,60.77
2023-06-21T14:27:37.203Z,61.27
2023-06-21T14:32:45.332Z,60.25
2023-06-21T14:37:55.738Z,60.18
2023-06-21T14:43:00.948Z,60.12
2023-06-21T14:48:07.865Z,59.52
2023-06-21T14:53:15.714Z,60.63
2023-06-21T14:58:21.040Z,59.09
2023-06-21T15:03:26.271Z,59.97
2023-06-21T15:08:36.342Z,59.63
2023-06-21T15:13:43.910Z,59.95
2023-06-21T15:18:49.740Z,59.50
2023-06-21T15:23:57.389Z,60.11
2023-06-21T15:29:03.033Z,60.34
2023-06-21T15:34:12.447Z,61.66
2023-06-21T15:39:20.239Z,60.97
2023-06-21T15:44:25.765Z,61.62
2023-06-21T15:49:33.788Z,61.97
2023-06-21T15:54:41.671Z,60.67
2023-06-21T15:59:49.314Z,60.22
2023-06-21T16:04:54.624Z,60.44
2023-06-21T16:10:02.505Z,60.27
2023-06-21T16:15:12.202Z,61.59
2023-06-21T16:20:17.390Z,62.37
2023-06-21T16:25:25.508Z,61.97
2023-06-21T16:30:30.781Z,61.20
2023-06-21T16:35:36.793Z,61.41
2023-06-21T16:40:44.523Z,61.97
2023-06-21T16:45:49.917Z,62.27
2023-06-21T16:50:57.913Z,62.77
2023-06-21T16:56:05.612Z,63.58
2023-06-21T17:01:12.779Z,63.83
2023-06-21T17:06:17.895Z,63.73
2023-06-21T17:11:27.089Z,63.82
2023-06-21T17:16:32.788Z,64.62
2023-06-21T17:21:37.964Z,63.81
2023-06-21T17:26:45.801Z,64.57
2023-06-21T17:32:00.223Z,65.14
2023-06-21T17:37:05.957Z,66.26
2023-06-21T17:42:13.935Z,65.85
2023-06-21T17:47:19.177Z,66.46
2023-06-21T17:52:24.230Z,66.22
2023-06-21T17:57:34.083Z,66.63
2023-06-21T18:02:39.818Z,67.12
2023-06-21T18:07:45.020Z,67.75
2023-06-21T18:12:55.773Z,67.89
2023-06-21T18:18:01.012Z,68.30
2023-06-21T18:23:06.664Z,68.93
2023-06-21T18:28:14.741Z,69.48
2023-06-21T18:33:19.946Z,69.96
2023-06-21T18:38:27.250Z,69.87
2023-06-21T18:43:36.558Z,70.25
2023-06-21T18:48:41.996Z,70.69
2023-06-21T18:53:47.424Z,71.09
2023-06-21T18:58:56.441Z,70.18
2023-06-21T19:04:04.234Z,71.05
2023-06-21T19:09:09.897Z,71.54
2023-06-21T19:14:17.621Z,71.26
2023-06-21T19:19:22.803Z,71.07
2023-06-21T19:24:31.821Z,72.44
2023-06-21T19:29:39.895Z,71.60
2023-06-21T19:34:46.712Z,72.02
2023-06-21T19:39:51.946Z,71.88
2023-06-21T19:44:59.630Z,73.80
2023-06-21T19:50:05.176Z,73.35
2023-06-21T19:55:11.966Z,73.81
2023-06-21T20:00:23.307Z,74.93
2023-06-21T20:05:28.614Z,75.38
2023-06-21T20:10:33.702Z,77.29
2023-06-21T20:15:46.226Z,77.50
2023-06-21T20:20:52.636Z,81.56
2023-06-21T20:25:58.056Z,83.12
2023-06-21T20:31:07.673Z,80.14
2023-06-21T20:36:15.834Z,81.25
2023-06-21T20:41:21.136Z,82.35
2023-06-21T20:46:30.134Z,83.83
2023-06-21T20:51:35.435Z,83.83
2023-06-21T20:56:40.718Z,84.42
2023-06-21T21:01:52.643Z,88.47
2023-06-21T21:07:02.693Z,87.28
2023-06-21T21:12:09.788Z,88.85
2023-06-21T21:17:18.645Z,90.93
2023-06-21T21:22:26.147Z,92.85
2023-06-21T21:27:39.024Z,93.75
2023-06-21T21:32:46.778Z,93.32
2023-06-21T21:37:54.420Z,94.96
2023-06-21T21:43:00.162Z,95.32
2023-06-21T21:48:11.590Z,97.33
2023-06-21T21:53:17.845Z,97.24
2023-06-21T21:58:25.253Z,97.56
2023-06-21T22:03:33.912Z,98.48
2023-06-21T22:08:39.164Z,97.72
2023-06-21T22:13:49.250Z,100.00
2023-06-21T22:18:58.511Z,100.00
2023-06-21T22:24:03.928Z,100.00
2023-06-21T22:29:13.192Z,100.00
2023-06-21T22:34:25.127Z,100.00
2023-06-21T22:39:32.329Z,100.00
2023-06-21T22:44:37.573Z,100.00
2023-06-21T22:49:45.887Z,100.00
2023-06-21T22:54:51.093Z,100.00
2023-06-21T22:59:56.444Z,100.00
2023-06-21T23:05:04.588Z,100.00
2023-06-21T23:10:12.313Z,100.00
2023-06-21T23:15:20.497Z,100.00
2023-06-21T23:20:34.787Z,100.00
2023-06-21T23:25:42.247Z,100.00
2023-06-21T23:30:47.345Z,100.00
2023-06-21T23:36:03.630Z,100.00
2023-06-21T23:41:10.747Z,100.00
2023-06-21T23:46:16.129Z,100.00
2023-06-21T23:51:23.924Z,100.00
2023-06-21T23:56:29.944Z,100.00
